sensor_id;sensor_type;location;lat;lon;timestamp;pressure;altitude;pressure_sealevel;temperature;humidity
55466;BME280;41329;41.594;23.810;2023-03-01T00:01:25;95657.31;;;9.42;73.23
55466;BME280;41329;41.594;23.810;2023-03-01T00:03:52;95645.91;;;9.28;73.53
55466;BME280;41329;41.594;23.810;2023-03-01T00:06:18;95660.06;;;9.42;73.61
55466;BME280;41329;41.594;23.810;2023-03-01T00:08:44;95651.34;;;9.40;73.42
55466;BME280;41329;41.594;23.810;2023-03-01T00:11:23;95656.19;;;9.43;73.28
55466;BME280;41329;41.594;23.810;2023-03-01T00:13:51;95620.19;;;9.24;73.40
55466;BME280;41329;41.594;23.810;2023-03-01T00:16:24;95645.91;;;9.44;73.20
55466;BME280;41329;41.594;23.810;2023-03-01T00:18:49;95651.78;;;9.42;73.15
55466;BME280;41329;41.594;23.810;2023-03-01T00:21:16;95643.50;;;9.27;73.15
55466;BME280;41329;41.594;23.810;2023-03-01T00:23:41;95665.50;;;9.23;73.49
55466;BME280;41329;41.594;23.810;2023-03-01T00:26:09;95654.19;;;9.13;73.70
55466;BME280;41329;41.594;23.810;2023-03-01T00:28:36;95647.16;;;9.15;73.71
55466;BME280;41329;41.594;23.810;2023-03-01T00:31:07;95638.69;;;9.08;73.76
55466;BME280;41329;41.594;23.810;2023-03-01T00:33:33;95649.91;;;9.15;73.71
55466;BME280;41329;41.594;23.810;2023-03-01T00:35:59;95660.69;;;9.20;73.55
55466;BME280;41329;41.594;23.810;2023-03-01T00:38:25;95669.69;;;9.17;73.50
55466;BME280;41329;41.594;23.810;2023-03-01T00:40:50;95662.00;;;9.11;73.68
55466;BME280;41329;41.594;23.810;2023-03-01T00:43:16;95668.00;;;9.13;73.86
55466;BME280;41329;41.594;23.810;2023-03-01T00:45:41;95666.00;;;9.13;73.84
55466;BME280;41329;41.594;23.810;2023-03-01T00:48:07;95660.50;;;9.13;73.82
55466;BME280;41329;41.594;23.810;2023-03-01T00:50:32;95650.81;;;9.04;73.94
55466;BME280;41329;41.594;23.810;2023-03-01T00:52:58;95648.94;;;9.08;73.70
55466;BME280;41329;41.594;23.810;2023-03-01T00:55:24;95658.19;;;9.15;73.75
55466;BME280;41329;41.594;23.810;2023-03-01T00:57:49;95650.88;;;9.07;73.79
55466;BME280;41329;41.594;23.810;2023-03-01T01:00:15;95655.34;;;9.12;73.78
55466;BME280;41329;41.594;23.810;2023-03-01T01:02:41;95648.47;;;9.06;73.88
55466;BME280;41329;41.594;23.810;2023-03-01T01:05:07;95660.88;;;9.12;73.87
55466;BME280;41329;41.594;23.810;2023-03-01T01:07:32;95624.31;;;8.87;74.17
55466;BME280;41329;41.594;23.810;2023-03-01T01:09:58;95636.38;;;8.95;74.44
55466;BME280;41329;41.594;23.810;2023-03-01T01:12:23;95650.00;;;9.03;74.62
55466;BME280;41329;41.594;23.810;2023-03-01T01:14:49;95652.31;;;9.01;74.81
55466;BME280;41329;41.594;23.810;2023-03-01T01:17:14;95654.34;;;9.04;74.95
55466;BME280;41329;41.594;23.810;2023-03-01T01:19:39;95632.19;;;9.01;75.00
55466;BME280;41329;41.594;23.810;2023-03-01T01:22:05;95628.59;;;9.00;75.35
55466;BME280;41329;41.594;23.810;2023-03-01T01:24:31;95647.06;;;9.12;75.25
55466;BME280;41329;41.594;23.810;2023-03-01T01:26:56;95636.47;;;9.14;75.16
55466;BME280;41329;41.594;23.810;2023-03-01T01:29:22;95640.94;;;9.18;75.24
55466;BME280;41329;41.594;23.810;2023-03-01T01:31:47;95644.81;;;9.17;75.18
55466;BME280;41329;41.594;23.810;2023-03-01T01:34:19;95640.81;;;9.15;75.26
55466;BME280;41329;41.594;23.810;2023-03-01T01:36:48;95640.38;;;9.13;75.14
55466;BME280;41329;41.594;23.810;2023-03-01T01:39:15;95635.41;;;9.18;75.23
55466;BME280;41329;41.594;23.810;2023-03-01T01:41:41;95636.38;;;9.26;75.15
55466;BME280;41329;41.594;23.810;2023-03-01T01:44:22;95632.91;;;9.29;75.14
55466;BME280;41329;41.594;23.810;2023-03-01T01:47:07;95629.44;;;9.32;74.94
55466;BME280;41329;41.594;23.810;2023-03-01T01:52:31;95619.13;;;9.29;74.63
55466;BME280;41329;41.594;23.810;2023-03-01T01:55:14;95577.59;;;8.94;74.69
55466;BME280;41329;41.594;23.810;2023-03-01T01:57:44;95622.84;;;9.21;74.81
55466;BME280;41329;41.594;23.810;2023-03-01T02:00:13;95614.31;;;9.26;74.72
55466;BME280;41329;41.594;23.810;2023-03-01T02:02:40;95611.97;;;9.28;74.78
55466;BME280;41329;41.594;23.810;2023-03-01T02:08:02;95596.91;;;9.25;74.64
55466;BME280;41329;41.594;23.810;2023-03-01T02:10:28;95586.50;;;9.19;74.65
55466;BME280;41329;41.594;23.810;2023-03-01T02:12:54;95582.59;;;9.20;74.54
55466;BME280;41329;41.594;23.810;2023-03-01T02:15:22;95587.66;;;9.18;74.54
55466;BME280;41329;41.594;23.810;2023-03-01T02:17:48;95579.03;;;9.04;74.97
55466;BME280;41329;41.594;23.810;2023-03-01T02:20:20;95584.56;;;9.04;75.15
55466;BME280;41329;41.594;23.810;2023-03-01T02:22:48;95578.31;;;9.07;75.09
55466;BME280;41329;41.594;23.810;2023-03-01T02:25:21;95561.41;;;8.93;75.06
55466;BME280;41329;41.594;23.810;2023-03-01T02:30:20;95568.00;;;9.04;74.84
55466;BME280;41329;41.594;23.810;2023-03-01T02:32:47;95562.13;;;9.05;74.88
55466;BME280;41329;41.594;23.810;2023-03-01T02:35:14;95556.84;;;9.00;74.81
55466;BME280;41329;41.594;23.810;2023-03-01T02:37:42;95571.38;;;9.13;74.66
55466;BME280;41329;41.594;23.810;2023-03-01T02:40:11;95576.00;;;9.09;74.47
55466;BME280;41329;41.594;23.810;2023-03-01T02:42:47;95573.16;;;9.05;74.42
55466;BME280;41329;41.594;23.810;2023-03-01T02:45:14;95578.16;;;9.00;74.08
55466;BME280;41329;41.594;23.810;2023-03-01T02:47:39;95564.50;;;8.91;74.31
55466;BME280;41329;41.594;23.810;2023-03-01T02:53:11;95558.38;;;8.98;73.97
55466;BME280;41329;41.594;23.810;2023-03-01T02:55:38;95556.41;;;8.98;74.25
55466;BME280;41329;41.594;23.810;2023-03-01T02:58:04;95551.34;;;9.00;74.22
55466;BME280;41329;41.594;23.810;2023-03-01T03:00:41;95538.69;;;8.99;74.53
55466;BME280;41329;41.594;23.810;2023-03-01T03:03:13;95525.59;;;8.96;74.59
55466;BME280;41329;41.594;23.810;2023-03-01T03:05:39;95495.53;;;8.76;74.92
55466;BME280;41329;41.594;23.810;2023-03-01T03:08:05;95510.56;;;8.78;74.87
55466;BME280;41329;41.594;23.810;2023-03-01T03:10:35;95527.31;;;8.85;74.83
55466;BME280;41329;41.594;23.810;2023-03-01T03:13:07;95544.94;;;8.96;74.88
55466;BME280;41329;41.594;23.810;2023-03-01T03:15:33;95516.09;;;8.78;75.06
55466;BME280;41329;41.594;23.810;2023-03-01T03:18:06;95550.19;;;9.01;74.89
55466;BME280;41329;41.594;23.810;2023-03-01T03:20:32;95534.34;;;8.98;74.76
55466;BME280;41329;41.594;23.810;2023-03-01T03:22:58;95552.69;;;9.06;74.54
55466;BME280;41329;41.594;23.810;2023-03-01T03:25:25;95543.59;;;9.06;74.51
55466;BME280;41329;41.594;23.810;2023-03-01T03:27:51;95536.47;;;9.05;74.35
55466;BME280;41329;41.594;23.810;2023-03-01T03:30:23;95495.97;;;8.78;74.30
55466;BME280;41329;41.594;23.810;2023-03-01T03:32:49;95538.34;;;9.01;74.35
55466;BME280;41329;41.594;23.810;2023-03-01T03:35:28;95537.53;;;9.00;74.24
55466;BME280;41329;41.594;23.810;2023-03-01T03:38:00;95533.19;;;8.99;74.19
55466;BME280;41329;41.594;23.810;2023-03-01T03:40:34;95539.16;;;9.01;74.26
55466;BME280;41329;41.594;23.810;2023-03-01T03:43:01;95521.88;;;8.89;74.45
55466;BME280;41329;41.594;23.810;2023-03-01T03:48:41;95540.56;;;8.95;74.15
55466;BME280;41329;41.594;23.810;2023-03-01T03:51:10;95541.75;;;8.94;73.99
55466;BME280;41329;41.594;23.810;2023-03-01T03:53:36;95536.56;;;8.93;74.04
55466;BME280;41329;41.594;23.810;2023-03-01T03:56:01;95553.66;;;8.98;74.35
55466;BME280;41329;41.594;23.810;2023-03-01T03:58:27;95555.97;;;8.96;74.34
55466;BME280;41329;41.594;23.810;2023-03-01T04:00:55;95535.25;;;8.87;74.41
55466;BME280;41329;41.594;23.810;2023-03-01T04:03:22;95546.56;;;8.97;74.54
55466;BME280;41329;41.594;23.810;2023-03-01T04:05:48;95518.94;;;8.82;74.24
55466;BME280;41329;41.594;23.810;2023-03-01T04:08:16;95550.19;;;9.01;74.59
55466;BME280;41329;41.594;23.810;2023-03-01T04:10:46;95555.53;;;8.79;74.69
55466;BME280;41329;41.594;23.810;2023-03-01T04:13:15;95537.63;;;8.57;75.49
55466;BME280;41329;41.594;23.810;2023-03-01T04:15:41;95543.75;;;8.66;75.24
55466;BME280;41329;41.594;23.810;2023-03-01T04:18:12;95556.47;;;8.55;75.54
55466;BME280;41329;41.594;23.810;2023-03-01T04:20:38;95525.34;;;8.00;77.45
55466;BME280;41329;41.594;23.810;2023-03-01T04:23:12;95548.53;;;8.11;77.89
55466;BME280;41329;41.594;23.810;2023-03-01T04:28:08;95540.81;;;8.04;77.79
55466;BME280;41329;41.594;23.810;2023-03-01T04:30:35;95552.38;;;8.22;77.71
55466;BME280;41329;41.594;23.810;2023-03-01T04:33:08;95498.25;;;8.02;77.59
55466;BME280;41329;41.594;23.810;2023-03-01T04:35:35;95556.44;;;8.40;77.15
55466;BME280;41329;41.594;23.810;2023-03-01T04:38:01;95553.31;;;8.41;77.19
55466;BME280;41329;41.594;23.810;2023-03-01T04:40:26;95531.19;;;8.38;76.76
55466;BME280;41329;41.594;23.810;2023-03-01T04:42:52;95556.47;;;8.55;76.65
55466;BME280;41329;41.594;23.810;2023-03-01T04:45:17;95544.97;;;8.53;76.54
55466;BME280;41329;41.594;23.810;2023-03-01T04:47:44;95548.72;;;8.61;76.57
55466;BME280;41329;41.594;23.810;2023-03-01T04:50:14;95548.94;;;8.68;76.57
55466;BME280;41329;41.594;23.810;2023-03-01T04:52:39;95538.50;;;8.61;76.33
55466;BME280;41329;41.594;23.810;2023-03-01T04:55:06;95548.56;;;8.69;75.89
55466;BME280;41329;41.594;23.810;2023-03-01T04:57:32;95487.41;;;8.36;75.82
55466;BME280;41329;41.594;23.810;2023-03-01T04:59:57;95545.47;;;8.71;75.98
55466;BME280;41329;41.594;23.810;2023-03-01T05:02:23;95559.06;;;8.79;75.76
55466;BME280;41329;41.594;23.810;2023-03-01T05:04:48;95550.00;;;8.79;75.73
55466;BME280;41329;41.594;23.810;2023-03-01T05:07:14;95558.03;;;8.84;75.75
55466;BME280;41329;41.594;23.810;2023-03-01T05:09:47;95556.50;;;8.86;75.72
55466;BME280;41329;41.594;23.810;2023-03-01T05:12:14;95543.25;;;8.76;75.82
55466;BME280;41329;41.594;23.810;2023-03-01T05:14:40;95539.75;;;8.79;75.95
55466;BME280;41329;41.594;23.810;2023-03-01T05:17:06;95544.66;;;8.86;75.79
55466;BME280;41329;41.594;23.810;2023-03-01T05:19:32;95549.19;;;8.94;75.62
55466;BME280;41329;41.594;23.810;2023-03-01T05:21:58;95520.22;;;8.84;75.75
55466;BME280;41329;41.594;23.810;2023-03-01T05:24:28;95554.56;;;9.02;75.94
55466;BME280;41329;41.594;23.810;2023-03-01T05:26:54;95547.88;;;9.03;76.11
55466;BME280;41329;41.594;23.810;2023-03-01T05:29:24;95554.28;;;9.07;75.89
55466;BME280;41329;41.594;23.810;2023-03-01T05:31:58;95553.94;;;9.09;75.91
55466;BME280;41329;41.594;23.810;2023-03-01T05:34:25;95560.63;;;9.08;75.76
55466;BME280;41329;41.594;23.810;2023-03-01T05:36:52;95564.91;;;9.05;75.94
55466;BME280;41329;41.594;23.810;2023-03-01T05:39:22;95557.41;;;9.06;75.88
55466;BME280;41329;41.594;23.810;2023-03-01T05:41:52;95549.75;;;8.99;75.76
55466;BME280;41329;41.594;23.810;2023-03-01T05:44:18;95544.78;;;8.89;75.62
55466;BME280;41329;41.594;23.810;2023-03-01T05:46:43;95571.91;;;9.03;75.49
55466;BME280;41329;41.594;23.810;2023-03-01T05:49:10;95570.84;;;9.07;75.85
55466;BME280;41329;41.594;23.810;2023-03-01T05:51:36;95574.50;;;9.11;75.55
55466;BME280;41329;41.594;23.810;2023-03-01T05:54:01;95564.00;;;9.01;75.46
55466;BME280;41329;41.594;23.810;2023-03-01T05:56:27;95581.72;;;9.16;75.79
55466;BME280;41329;41.594;23.810;2023-03-01T05:58:52;95565.75;;;9.09;75.85
55466;BME280;41329;41.594;23.810;2023-03-01T06:01:17;95594.16;;;9.25;75.74
55466;BME280;41329;41.594;23.810;2023-03-01T06:03:43;95588.75;;;9.29;75.94
55466;BME280;41329;41.594;23.810;2023-03-01T06:06:08;95586.41;;;9.31;75.62
55466;BME280;41329;41.594;23.810;2023-03-01T06:08:34;95590.41;;;9.33;75.95
55466;BME280;41329;41.594;23.810;2023-03-01T06:10:59;95592.81;;;9.35;75.74
55466;BME280;41329;41.594;23.810;2023-03-01T06:13:25;95567.53;;;9.17;75.62
55466;BME280;41329;41.594;23.810;2023-03-01T06:15:50;95580.88;;;9.31;74.83
55466;BME280;41329;41.594;23.810;2023-03-01T06:18:15;95585.72;;;9.34;74.33
55466;BME280;41329;41.594;23.810;2023-03-01T06:20:41;95590.50;;;9.21;74.10
55466;BME280;41329;41.594;23.810;2023-03-01T06:23:06;95599.06;;;9.01;74.58
55466;BME280;41329;41.594;23.810;2023-03-01T06:25:32;95591.94;;;8.84;75.18
55466;BME280;41329;41.594;23.810;2023-03-01T06:27:58;95597.81;;;8.98;75.16
55466;BME280;41329;41.594;23.810;2023-03-01T06:30:24;95607.00;;;9.02;75.26
55466;BME280;41329;41.594;23.810;2023-03-01T06:32:50;95607.25;;;8.97;75.37
55466;BME280;41329;41.594;23.810;2023-03-01T06:35:17;95596.84;;;8.91;75.78
55466;BME280;41329;41.594;23.810;2023-03-01T06:37:44;95606.13;;;8.55;76.40
55466;BME280;41329;41.594;23.810;2023-03-01T06:40:10;95603.50;;;8.47;76.73
55466;BME280;41329;41.594;23.810;2023-03-01T06:42:38;95599.16;;;8.46;77.10
55466;BME280;41329;41.594;23.810;2023-03-01T06:45:05;95607.09;;;8.63;76.78
55466;BME280;41329;41.594;23.810;2023-03-01T06:47:31;95605.69;;;8.69;76.76
55466;BME280;41329;41.594;23.810;2023-03-01T06:49:58;95603.13;;;8.76;76.66
55466;BME280;41329;41.594;23.810;2023-03-01T06:52:24;95603.56;;;8.78;76.41
55466;BME280;41329;41.594;23.810;2023-03-01T06:54:49;95584.00;;;8.83;75.87
55466;BME280;41329;41.594;23.810;2023-03-01T06:57:15;95593.91;;;8.99;76.00
55466;BME280;41329;41.594;23.810;2023-03-01T06:59:40;95602.09;;;9.11;75.69
55466;BME280;41329;41.594;23.810;2023-03-01T07:02:06;95587.13;;;8.97;75.44
55466;BME280;41329;41.594;23.810;2023-03-01T07:04:31;95604.22;;;9.18;75.05
55466;BME280;41329;41.594;23.810;2023-03-01T07:06:57;95591.69;;;9.20;75.03
55466;BME280;41329;41.594;23.810;2023-03-01T07:09:28;95601.03;;;9.31;74.52
55466;BME280;41329;41.594;23.810;2023-03-01T07:11:53;95579.56;;;9.25;74.60
55466;BME280;41329;41.594;23.810;2023-03-01T07:14:19;95587.84;;;9.25;74.13
55466;BME280;41329;41.594;23.810;2023-03-01T07:16:45;95598.34;;;9.35;74.34
55466;BME280;41329;41.594;23.810;2023-03-01T07:19:11;95603.25;;;9.41;74.28
55466;BME280;41329;41.594;23.810;2023-03-01T07:21:36;95584.34;;;9.28;74.41
55466;BME280;41329;41.594;23.810;2023-03-01T07:24:05;95600.94;;;9.43;74.57
55466;BME280;41329;41.594;23.810;2023-03-01T07:26:31;95610.63;;;9.53;74.43
55466;BME280;41329;41.594;23.810;2023-03-01T07:28:59;95550.09;;;9.29;74.63
55466;BME280;41329;41.594;23.810;2023-03-01T07:31:25;95595.19;;;9.67;74.73
55466;BME280;41329;41.594;23.810;2023-03-01T07:33:53;95578.06;;;9.62;74.63
55466;BME280;41329;41.594;23.810;2023-03-01T07:36:18;95598.47;;;9.73;74.00
55466;BME280;41329;41.594;23.810;2023-03-01T07:38:44;95556.00;;;9.46;73.53
55466;BME280;41329;41.594;23.810;2023-03-01T07:41:09;95577.53;;;9.72;73.30
55466;BME280;41329;41.594;23.810;2023-03-01T07:43:35;95593.84;;;9.77;73.33
55466;BME280;41329;41.594;23.810;2023-03-01T07:46:01;95591.00;;;9.73;72.96
55466;BME280;41329;41.594;23.810;2023-03-01T07:48:27;95601.56;;;9.87;72.99
55466;BME280;41329;41.594;23.810;2023-03-01T07:50:53;95601.66;;;9.90;73.22
55466;BME280;41329;41.594;23.810;2023-03-01T07:53:18;95599.03;;;9.97;73.57
55466;BME280;41329;41.594;23.810;2023-03-01T07:55:44;95601.53;;;10.02;73.38
55466;BME280;41329;41.594;23.810;2023-03-01T07:58:09;95602.44;;;10.06;73.11
55466;BME280;41329;41.594;23.810;2023-03-01T08:00:35;95589.06;;;9.93;72.32
55466;BME280;41329;41.594;23.810;2023-03-01T08:03:01;95595.91;;;9.99;72.38
55466;BME280;41329;41.594;23.810;2023-03-01T08:05:27;95589.13;;;9.96;72.50
55466;BME280;41329;41.594;23.810;2023-03-01T08:07:53;95592.06;;;10.03;72.49
55466;BME280;41329;41.594;23.810;2023-03-01T08:10:19;95580.38;;;10.10;72.85
55466;BME280;41329;41.594;23.810;2023-03-01T08:12:44;95567.97;;;10.04;73.02
55466;BME280;41329;41.594;23.810;2023-03-01T08:15:10;95571.91;;;10.03;72.62
55466;BME280;41329;41.594;23.810;2023-03-01T08:17:36;95586.97;;;10.21;72.44
55466;BME280;41329;41.594;23.810;2023-03-01T08:20:01;95572.25;;;10.17;72.24
55466;BME280;41329;41.594;23.810;2023-03-01T08:22:28;95531.44;;;9.95;72.08
55466;BME280;41329;41.594;23.810;2023-03-01T08:24:54;95584.25;;;10.24;72.21
55466;BME280;41329;41.594;23.810;2023-03-01T08:27:21;95585.06;;;10.25;72.00
55466;BME280;41329;41.594;23.810;2023-03-01T08:29:47;95561.47;;;10.12;71.76
55466;BME280;41329;41.594;23.810;2023-03-01T08:32:12;95591.53;;;10.32;71.98
55466;BME280;41329;41.594;23.810;2023-03-01T08:34:37;95588.41;;;10.34;72.26
55466;BME280;41329;41.594;23.810;2023-03-01T08:37:03;95581.41;;;10.40;72.44
55466;BME280;41329;41.594;23.810;2023-03-01T08:39:29;95570.19;;;10.33;72.32
55466;BME280;41329;41.594;23.810;2023-03-01T08:41:55;95585.50;;;10.46;71.95
55466;BME280;41329;41.594;23.810;2023-03-01T08:44:20;95569.19;;;10.41;72.26
55466;BME280;41329;41.594;23.810;2023-03-01T08:46:46;95576.59;;;10.56;72.04
55466;BME280;41329;41.594;23.810;2023-03-01T08:49:17;95581.78;;;10.57;71.96
55466;BME280;41329;41.594;23.810;2023-03-01T08:51:44;95527.94;;;10.32;71.80
55466;BME280;41329;41.594;23.810;2023-03-01T08:54:13;95576.00;;;10.66;71.65
55466;BME280;41329;41.594;23.810;2023-03-01T08:56:40;95565.75;;;10.66;71.81
55466;BME280;41329;41.594;23.810;2023-03-01T08:59:05;95568.56;;;10.70;71.90
55466;BME280;41329;41.594;23.810;2023-03-01T09:01:31;95564.72;;;10.74;71.36
55466;BME280;41329;41.594;23.810;2023-03-01T09:03:56;95558.16;;;10.63;69.58
55466;BME280;41329;41.594;23.810;2023-03-01T09:06:22;95564.44;;;10.60;69.51
55466;BME280;41329;41.594;23.810;2023-03-01T09:08:48;95567.06;;;10.53;69.33
55466;BME280;41329;41.594;23.810;2023-03-01T09:11:19;95568.00;;;10.61;69.19
55466;BME280;41329;41.594;23.810;2023-03-01T09:13:46;95558.41;;;10.55;69.50
55466;BME280;41329;41.594;23.810;2023-03-01T09:16:13;95554.63;;;10.44;69.17
55466;BME280;41329;41.594;23.810;2023-03-01T09:18:39;95560.88;;;10.41;69.67
55466;BME280;41329;41.594;23.810;2023-03-01T09:21:11;95555.28;;;10.37;69.19
55466;BME280;41329;41.594;23.810;2023-03-01T09:23:39;95554.13;;;10.38;69.20
55466;BME280;41329;41.594;23.810;2023-03-01T09:26:10;95550.78;;;10.48;69.58
55466;BME280;41329;41.594;23.810;2023-03-01T09:28:36;95552.56;;;10.60;69.35
55466;BME280;41329;41.594;23.810;2023-03-01T09:31:02;95540.28;;;10.57;69.40
55466;BME280;41329;41.594;23.810;2023-03-01T09:33:29;95549.66;;;10.72;69.65
55466;BME280;41329;41.594;23.810;2023-03-01T09:36:07;95562.44;;;10.80;69.45
55466;BME280;41329;41.594;23.810;2023-03-01T09:38:33;95564.56;;;10.67;68.13
55466;BME280;41329;41.594;23.810;2023-03-01T09:41:00;95540.94;;;10.51;68.13
55466;BME280;41329;41.594;23.810;2023-03-01T09:46:02;95538.56;;;10.72;68.84
55466;BME280;41329;41.594;23.810;2023-03-01T09:48:36;95513.84;;;10.60;69.19
55466;BME280;41329;41.594;23.810;2023-03-01T09:51:07;95548.81;;;10.90;69.16
55466;BME280;41329;41.594;23.810;2023-03-01T09:53:34;95541.66;;;10.89;69.02
55466;BME280;41329;41.594;23.810;2023-03-01T10:05:09;95548.78;;;11.13;68.37
55466;BME280;41329;41.594;23.810;2023-03-01T10:08:02;95550.13;;;11.22;68.77
55466;BME280;41329;41.594;23.810;2023-03-01T10:10:43;95525.13;;;11.15;68.28
55466;BME280;41329;41.594;23.810;2023-03-01T10:13:19;95534.81;;;11.28;67.92
55466;BME280;41329;41.594;23.810;2023-03-01T10:16:27;95533.31;;;11.34;68.13
55466;BME280;41329;41.594;23.810;2023-03-01T10:18:59;95519.34;;;11.27;67.87
55466;BME280;41329;41.594;23.810;2023-03-01T10:21:27;95539.00;;;11.41;68.01
55466;BME280;41329;41.594;23.810;2023-03-01T10:23:56;95529.91;;;11.44;67.69
55466;BME280;41329;41.594;23.810;2023-03-01T10:26:38;95530.34;;;11.46;67.80
55466;BME280;41329;41.594;23.810;2023-03-01T10:29:12;95512.88;;;11.42;68.15
55466;BME280;41329;41.594;23.810;2023-03-01T10:31:44;95524.97;;;11.57;68.23
55466;BME280;41329;41.594;23.810;2023-03-01T10:34:27;95527.38;;;11.58;67.92
55466;BME280;41329;41.594;23.810;2023-03-01T10:36:57;95510.81;;;11.62;67.25
55466;BME280;41329;41.594;23.810;2023-03-01T10:39:24;95509.22;;;11.61;67.34
55466;BME280;41329;41.594;23.810;2023-03-01T10:41:59;95464.56;;;11.40;66.96
55466;BME280;41329;41.594;23.810;2023-03-01T10:44:46;95505.03;;;11.70;67.64
55466;BME280;41329;41.594;23.810;2023-03-01T10:47:24;95505.78;;;11.71;67.08
55466;BME280;41329;41.594;23.810;2023-03-01T10:50:01;95508.50;;;11.64;66.39
55466;BME280;41329;41.594;23.810;2023-03-01T11:00:49;95495.19;;;11.50;65.72
55466;BME280;41329;41.594;23.810;2023-03-01T11:03:21;95492.47;;;11.54;65.79
55466;BME280;41329;41.594;23.810;2023-03-01T11:06:02;95491.41;;;11.62;65.72
55466;BME280;41329;41.594;23.810;2023-03-01T11:08:36;95477.59;;;11.65;66.58
55466;BME280;41329;41.594;23.810;2023-03-01T11:11:43;95481.78;;;11.78;66.03
55466;BME280;41329;41.594;23.810;2023-03-01T11:16:35;95474.28;;;11.56;65.73
55466;BME280;41329;41.594;23.810;2023-03-01T11:19:13;95455.44;;;11.39;65.85
55466;BME280;41329;41.594;23.810;2023-03-01T11:24:12;95450.47;;;11.52;65.79
55466;BME280;41329;41.594;23.810;2023-03-01T11:26:42;95469.25;;;11.62;65.50
55466;BME280;41329;41.594;23.810;2023-03-01T11:31:55;95461.66;;;11.59;65.72
55466;BME280;41329;41.594;23.810;2023-03-01T11:37:07;95455.84;;;11.64;65.50
55466;BME280;41329;41.594;23.810;2023-03-01T11:42:52;95458.59;;;11.64;65.40
55466;BME280;41329;41.594;23.810;2023-03-01T11:45:23;95452.94;;;11.57;65.63
55466;BME280;41329;41.594;23.810;2023-03-01T11:48:10;95448.31;;;11.64;65.78
55466;BME280;41329;41.594;23.810;2023-03-01T11:50:50;95426.94;;;11.65;65.88
55466;BME280;41329;41.594;23.810;2023-03-01T11:59:18;95440.50;;;12.03;66.81
55466;BME280;41329;41.594;23.810;2023-03-01T12:08:05;95431.94;;;12.18;65.85
55466;BME280;41329;41.594;23.810;2023-03-01T12:11:02;95430.88;;;12.30;65.30
55466;BME280;41329;41.594;23.810;2023-03-01T12:30:32;95420.94;;;12.66;64.39
55466;BME280;41329;41.594;23.810;2023-03-01T12:33:09;95422.94;;;12.69;65.06
55466;BME280;41329;41.594;23.810;2023-03-01T12:44:11;95410.66;;;12.70;63.43
55466;BME280;41329;41.594;23.810;2023-03-01T12:49:38;95404.72;;;12.71;62.39
55466;BME280;41329;41.594;23.810;2023-03-01T12:52:16;95406.69;;;12.71;62.32
55466;BME280;41329;41.594;23.810;2023-03-01T12:54:44;95380.84;;;12.60;62.48
55466;BME280;41329;41.594;23.810;2023-03-01T12:57:46;95400.03;;;12.79;62.29
55466;BME280;41329;41.594;23.810;2023-03-01T13:23:13;95400.06;;;12.82;60.29
55466;BME280;41329;41.594;23.810;2023-03-01T13:33:46;95396.13;;;12.87;60.96
55466;BME280;41329;41.594;23.810;2023-03-01T13:39:03;95394.97;;;12.91;60.85
55466;BME280;41329;41.594;23.810;2023-03-01T13:44:20;95366.03;;;12.92;61.07
55466;BME280;41329;41.594;23.810;2023-03-01T13:46:48;95382.28;;;12.90;60.59
55466;BME280;41329;41.594;23.810;2023-03-01T13:49:18;95376.34;;;12.92;60.72
55466;BME280;41329;41.594;23.810;2023-03-01T13:51:49;95327.38;;;12.70;60.96
55466;BME280;41329;41.594;23.810;2023-03-01T13:54:17;95393.97;;;13.13;61.20
55466;BME280;41329;41.594;23.810;2023-03-01T13:56:48;95396.00;;;13.20;60.91
55466;BME280;41329;41.594;23.810;2023-03-01T13:59:19;95394.44;;;13.22;60.74
55466;BME280;41329;41.594;23.810;2023-03-01T14:01:52;95397.25;;;13.26;60.91
55466;BME280;41329;41.594;23.810;2023-03-01T14:04:28;95377.75;;;13.19;61.07
55466;BME280;41329;41.594;23.810;2023-03-01T14:09:39;95388.84;;;13.15;60.48
55466;BME280;41329;41.594;23.810;2023-03-01T14:15:17;95377.75;;;13.22;60.76
55466;BME280;41329;41.594;23.810;2023-03-01T14:20:52;95385.78;;;13.38;61.29
55466;BME280;41329;41.594;23.810;2023-03-01T14:23:23;95387.03;;;13.40;60.96
55466;BME280;41329;41.594;23.810;2023-03-01T14:25:56;95387.38;;;13.32;60.03
55466;BME280;41329;41.594;23.810;2023-03-01T14:28:32;95387.03;;;13.40;60.06
55466;BME280;41329;41.594;23.810;2023-03-01T14:31:00;95387.44;;;13.42;60.20
55466;BME280;41329;41.594;23.810;2023-03-01T14:33:29;95381.88;;;13.46;60.66
55466;BME280;41329;41.594;23.810;2023-03-01T14:36:00;95379.53;;;13.51;60.85
55466;BME280;41329;41.594;23.810;2023-03-01T14:40:59;95377.19;;;13.57;60.69
55466;BME280;41329;41.594;23.810;2023-03-01T14:43:29;95366.81;;;13.50;60.25
55466;BME280;41329;41.594;23.810;2023-03-01T14:45:55;95378.75;;;13.54;59.88
55466;BME280;41329;41.594;23.810;2023-03-01T14:48:23;95386.72;;;13.56;59.47
55466;BME280;41329;41.594;23.810;2023-03-01T14:50:50;95380.28;;;13.48;59.58
55466;BME280;41329;41.594;23.810;2023-03-01T14:53:24;95377.50;;;13.45;59.79
55466;BME280;41329;41.594;23.810;2023-03-01T14:55:58;95378.72;;;13.47;59.58
55466;BME280;41329;41.594;23.810;2023-03-01T14:58:27;95374.34;;;13.46;59.68
55466;BME280;41329;41.594;23.810;2023-03-01T15:00:59;95364.75;;;13.37;59.76
55466;BME280;41329;41.594;23.810;2023-03-01T15:03:35;95376.25;;;13.35;60.04
55466;BME280;41329;41.594;23.810;2023-03-01T15:06:06;95376.63;;;13.27;60.23
55466;BME280;41329;41.594;23.810;2023-03-01T15:08:32;95375.78;;;13.19;59.87
55466;BME280;41329;41.594;23.810;2023-03-01T15:11:28;95376.59;;;13.23;60.15
55466;BME280;41329;41.594;23.810;2023-03-01T15:13:53;95371.38;;;13.11;60.38
55466;BME280;41329;41.594;23.810;2023-03-01T15:16:23;95373.78;;;13.20;60.49
55466;BME280;41329;41.594;23.810;2023-03-01T15:19:00;95365.06;;;13.21;60.73
55466;BME280;41329;41.594;23.810;2023-03-01T15:21:32;95367.47;;;13.23;60.70
55466;BME280;41329;41.594;23.810;2023-03-01T15:26:35;95360.66;;;13.17;61.09